Time;durP1;ratioP1;P1;durP2;ratioP2;P2;SDS_P1;SDS_P2;PMS_P1;PMS_P2;Temp;Humidity;BMP_temperature;BMP_pressure;BME280_temperature;BME280_humidity;BME280_pressure;Samples;Min_cycle;Max_cycle;Signal;HPM_P1;HPM_P2
2024/02/08 00:01:24;;;;;;;17.35;6.80;;;7.40;99.90;;;;;;6203224;23;20025;-82
2024/02/08 00:03:54;;;;;;;20.85;7.90;;;7.00;99.90;;;;;;6204264;23;20038;-82
2024/02/08 00:06:23;;;;;;;18.33;6.57;;;7.30;99.90;;;;;;6230416;23;20394;-83
2024/02/08 00:08:53;;;;;;;15.82;6.88;;;7.40;99.90;;;;;;6201174;23;20107;-78
2024/02/08 00:11:22;;;;;;;16.20;6.10;;;7.30;99.90;;;;;;6195445;23;20192;-78
2024/02/08 00:13:50;;;;;;;16.60;5.88;;;7.30;99.90;;;;;;6220513;23;20087;-78
2024/02/08 00:16:19;;;;;;;12.98;5.93;;;7.30;99.90;;;;;;6192623;23;20073;-79
2024/02/08 00:18:47;;;;;;;14.35;5.50;;;7.30;99.90;;;;;;6193887;23;20416;-79
2024/02/08 00:21:17;;;;;;;23.83;8.40;;;7.30;99.90;;;;;;6225430;23;20016;-79
2024/02/08 00:23:45;;;;;;;23.67;9.63;;;7.30;99.90;;;;;;6224770;23;20012;-78
2024/02/08 00:26:17;;;;;;;15.73;6.53;;;7.20;99.90;;;;;;6221231;23;20505;-78
2024/02/08 00:28:45;;;;;;;15.90;7.18;;;7.20;99.90;;;;;;6194500;23;20024;-78
2024/02/08 00:31:14;;;;;;;18.33;8.35;;;7.20;99.90;;;;;;6193159;23;20017;-78
2024/02/08 00:33:43;;;;;;;18.20;7.43;;;7.20;99.90;;;;;;6221281;23;20016;-78
2024/02/08 00:36:14;;;;;;;18.13;6.68;;;7.20;99.90;;;;;;6195110;23;20021;-78
2024/02/08 00:38:44;;;;;;;16.20;6.40;;;7.20;99.90;;;;;;6196189;23;20020;-78
2024/02/08 00:41:13;;;;;;;15.05;6.22;;;7.10;99.90;;;;;;6195360;23;20289;-78
2024/02/08 00:43:41;;;;;;;16.25;6.35;;;7.10;99.90;;;;;;6193215;23;20021;-78
2024/02/08 00:46:10;;;;;;;16.10;6.38;;;7.10;99.90;;;;;;6193169;23;20350;-79
2024/02/08 00:48:43;;;;;;;13.80;5.75;;;7.10;99.90;;;;;;6194633;23;20040;-78
2024/02/08 00:51:11;;;;;;;14.05;5.45;;;7.10;99.90;;;;;;6190896;23;20047;-78
2024/02/08 00:53:42;;;;;;;13.75;5.70;;;7.00;99.90;;;;;;6190712;23;20020;-79
2024/02/08 00:56:13;;;;;;;15.65;5.72;;;7.00;99.90;;;;;;6196255;23;20078;-78
2024/02/08 00:58:41;;;;;;;17.65;6.20;;;7.00;99.90;;;;;;6193319;23;20028;-78
2024/02/08 01:01:10;;;;;;;13.65;6.45;;;7.00;99.90;;;;;;6220921;23;20465;-78
2024/02/08 01:03:38;;;;;;;14.07;5.05;;;7.10;99.90;;;;;;6220079;23;20028;-78
2024/02/08 01:06:07;;;;;;;14.07;5.80;;;7.00;99.90;;;;;;6222083;23;20626;-78
2024/02/08 01:08:36;;;;;;;13.15;5.63;;;7.00;99.90;;;;;;6194249;23;20079;-78
2024/02/08 01:11:04;;;;;;;13.45;5.45;;;7.00;99.90;;;;;;6195605;23;20087;-78
2024/02/08 01:13:34;;;;;;;16.02;5.78;;;7.00;99.90;;;;;;6194964;23;20339;-78
2024/02/08 01:16:03;;;;;;;17.08;6.35;;;7.00;99.90;;;;;;6194809;23;20028;-78
2024/02/08 01:18:32;;;;;;;16.48;6.80;;;6.90;99.90;;;;;;6221637;23;20016;-81
2024/02/08 01:21:01;;;;;;;13.98;5.80;;;7.00;99.90;;;;;;6185220;23;20045;-76
2024/02/08 01:23:30;;;;;;;15.63;7.05;;;6.90;99.90;;;;;;6185312;23;20025;-77
2024/02/08 01:25:58;;;;;;;16.00;5.45;;;6.90;99.90;;;;;;6159788;23;20017;-77
2024/02/08 01:28:27;;;;;;;14.07;6.00;;;6.90;99.90;;;;;;6160401;23;20347;-77
2024/02/08 01:30:57;;;;;;;14.20;5.85;;;6.90;99.90;;;;;;6160511;23;20032;-76
2024/02/08 01:33:25;;;;;;;13.55;6.05;;;6.80;99.90;;;;;;6184638;23;20017;-76
2024/02/08 01:35:54;;;;;;;13.55;5.82;;;6.80;99.90;;;;;;6160175;23;20107;-77
2024/02/08 01:38:22;;;;;;;14.38;5.63;;;6.80;99.90;;;;;;6158934;23;20032;-77
2024/02/08 01:40:51;;;;;;;13.82;5.93;;;6.80;99.90;;;;;;6184505;23;20024;-78
2024/02/08 01:43:19;;;;;;;11.43;5.35;;;6.70;99.90;;;;;;6159361;23;20017;-76
2024/02/08 01:45:49;;;;;;;11.40;5.47;;;6.70;99.90;;;;;;6185105;23;20025;-77
2024/02/08 01:48:19;;;;;;;17.05;5.97;;;6.70;99.90;;;;;;6159145;23;20052;-78
2024/02/08 01:50:50;;;;;;;13.15;6.10;;;6.80;99.90;;;;;;6158780;23;20025;-76
2024/02/08 01:53:27;;;;;;;15.18;6.78;;;6.80;99.90;;;;;;6190231;23;20108;-77
2024/02/08 01:56:00;;;;;;;12.07;5.32;;;6.80;99.90;;;;;;6190116;23;20025;-77
2024/02/08 01:58:31;;;;;;;;;;;6.80;99.90;;;;;;6190727;23;20133;-76
2024/02/08 02:01:12;;;;;;;14.02;5.47;;;6.80;99.90;;;;;;6190868;23;19946;-76
2024/02/08 02:03:42;;;;;;;16.70;5.55;;;6.80;99.90;;;;;;6216365;23;20358;-77
2024/02/08 02:06:14;;;;;;;12.18;5.35;;;6.90;99.90;;;;;;6189098;23;20073;-76
2024/02/08 02:08:53;;;;;;;12.60;6.38;;;6.80;99.90;;;;;;6193318;23;20024;-76
2024/02/08 02:11:30;;;;;;;12.25;5.57;;;6.90;99.90;;;;;;6192915;23;20024;-76
2024/02/08 02:13:59;;;;;;;13.52;5.90;;;6.80;99.90;;;;;;6192027;23;20115;-76
2024/02/08 02:16:28;;;;;;;16.35;6.50;;;6.90;99.90;;;;;;6193624;23;20020;-76
2024/02/08 02:18:57;;;;;;;16.05;6.68;;;6.90;99.90;;;;;;6219624;23;20024;-76
2024/02/08 02:21:28;;;;;;;12.20;5.68;;;6.90;99.90;;;;;;6219604;23;20075;-77
2024/02/08 02:23:56;;;;;;;14.57;5.07;;;6.90;99.90;;;;;;6219185;23;20044;-76
2024/02/08 02:26:26;;;;;;;16.00;5.80;;;6.90;99.90;;;;;;6218171;23;20389;-76
2024/02/08 02:28:55;;;;;;;15.20;5.97;;;6.90;99.90;;;;;;6196613;23;20020;-80
2024/02/08 02:31:24;;;;;;;11.63;5.47;;;6.90;99.90;;;;;;6207099;23;20052;-82
2024/02/08 02:33:54;;;;;;;13.45;5.55;;;6.90;99.90;;;;;;6207692;23;20016;-82
2024/02/08 02:36:23;;;;;;;12.77;6.38;;;6.90;99.90;;;;;;6206439;23;20032;-80
2024/02/08 02:38:53;;;;;;;11.25;4.97;;;6.80;99.90;;;;;;6207379;23;20032;-82
2024/02/08 02:41:25;;;;;;;15.10;5.75;;;6.90;99.90;;;;;;6207373;23;20031;-82
2024/02/08 02:43:54;;;;;;;11.20;5.15;;;6.90;99.90;;;;;;6206532;23;20134;-81
2024/02/08 02:46:23;;;;;;;12.50;5.15;;;6.90;99.90;;;;;;6205863;23;20015;-82
2024/02/08 02:48:51;;;;;;;16.42;5.50;;;6.90;99.90;;;;;;6206180;23;20025;-82
2024/02/08 02:51:20;;;;;;;14.80;5.07;;;6.90;99.90;;;;;;6207310;23;20028;-80
2024/02/08 02:53:49;;;;;;;13.68;5.78;;;6.90;99.90;;;;;;6206201;23;20104;-80
2024/02/08 02:56:19;;;;;;;13.75;5.45;;;6.90;99.90;;;;;;6207865;23;20071;-82
2024/02/08 02:58:48;;;;;;;12.98;4.63;;;6.90;99.90;;;;;;6206021;23;20033;-82
2024/02/08 03:01:19;;;;;;;16.73;5.05;;;6.90;99.90;;;;;;6206460;23;20021;-82
2024/02/08 03:03:48;;;;;;;10.13;4.57;;;6.90;99.90;;;;;;6206727;23;20027;-82
2024/02/08 03:06:16;;;;;;;11.75;4.97;;;6.90;99.90;;;;;;6206390;23;20055;-80
2024/02/08 03:08:46;;;;;;;11.90;4.93;;;6.90;99.90;;;;;;6205675;23;20025;-82
2024/02/08 03:11:15;;;;;;;12.27;4.95;;;6.80;99.90;;;;;;6230163;23;20016;-82
2024/02/08 03:13:46;;;;;;;11.82;5.55;;;6.80;99.90;;;;;;6229120;23;20021;-81
2024/02/08 03:16:16;;;;;;;11.93;4.70;;;6.80;99.90;;;;;;6204653;23;20385;-82
2024/02/08 03:18:48;;;;;;;11.38;5.10;;;6.80;99.90;;;;;;6233008;23;20017;-82
2024/02/08 03:21:21;;;;;;;13.80;5.00;;;6.10;99.90;;;;;;6207257;23;20052;-81
2024/02/08 03:23:56;;;;;;;10.93;4.63;;;6.80;99.90;;;;;;6205340;23;20017;-82
2024/02/08 03:26:25;;;;;;;12.45;4.70;;;6.80;99.90;;;;;;6205652;23;20458;-80
2024/02/08 03:28:55;;;;;;;11.95;5.28;;;6.80;99.90;;;;;;6232031;23;20020;-81
2024/02/08 03:31:26;;;;;;;12.43;6.10;;;6.80;99.90;;;;;;6205775;23;20088;-81
2024/02/08 03:33:55;;;;;;;12.27;4.75;;;6.80;99.90;;;;;;6206611;23;20017;-80
2024/02/08 03:36:24;;;;;;;10.85;5.00;;;6.80;99.90;;;;;;6206789;23;20485;-81
2024/02/08 03:38:53;;;;;;;13.00;5.13;;;6.90;99.90;;;;;;6205164;23;20036;-77
2024/02/08 03:41:26;;;;;;;13.93;5.05;;;6.80;99.90;;;;;;6219824;23;20328;-76
2024/02/08 03:43:57;;;;;;;10.32;4.88;;;6.80;99.90;;;;;;6191413;23;20099;-77
2024/02/08 03:46:26;;;;;;;7.85;4.28;;;6.80;99.90;;;;;;6190985;23;20031;-76
2024/02/08 03:48:56;;;;;;;12.35;5.68;;;6.80;99.90;;;;;;6190584;23;20055;-76
2024/02/08 03:51:24;;;;;;;13.55;5.05;;;6.80;99.90;;;;;;6190545;23;20032;-77
2024/02/08 03:53:53;;;;;;;10.10;5.30;;;6.80;99.90;;;;;;6217964;23;20020;-77
2024/02/08 03:56:26;;;;;;;11.48;5.68;;;6.80;99.90;;;;;;6190355;23;20071;-77
2024/02/08 03:58:59;;;;;;;14.10;4.60;;;6.80;99.90;;;;;;6187755;23;20034;-76
2024/02/08 04:01:30;;;;;;;12.45;5.15;;;6.80;99.90;;;;;;6188388;23;20024;-77
2024/02/08 04:04:11;;;;;;;13.10;5.15;;;6.80;99.90;;;;;;6189250;23;20370;-76
2024/02/08 04:07:00;;;;;;;17.42;6.40;;;6.80;99.90;;;;;;6192145;23;20029;-77
2024/02/08 04:09:39;;;;;;;13.65;5.30;;;6.80;99.90;;;;;;6191042;23;20111;-77
2024/02/08 04:53:47;;;;;;;14.35;5.50;;;6.80;99.90;;;;;;6190578;23;20025;-78
2024/02/08 04:56:18;;;;;;;12.82;5.95;;;6.80;99.90;;;;;;6193374;23;20016;-78
2024/02/08 04:58:47;;;;;;;10.27;4.75;;;6.80;99.90;;;;;;6194444;23;20032;-79
2024/02/08 05:01:37;;;;;;;11.55;4.85;;;6.80;99.90;;;;;;6196724;23;20341;-78
2024/02/08 05:04:08;;;;;;;12.38;4.82;;;6.80;99.90;;;;;;6222489;23;20091;-78
2024/02/08 05:06:36;;;;;;;10.38;4.68;;;6.70;99.90;;;;;;6194384;23;20035;-78
2024/02/08 05:09:05;;;;;;;11.90;5.68;;;6.80;99.90;;;;;;6194965;23;20039;-78
2024/02/08 05:11:36;;;;;;;16.90;8.50;;;6.80;99.90;;;;;;6194512;23;20327;-79
2024/02/08 05:14:05;;;;;;;18.25;9.85;;;6.80;99.90;;;;;;6194090;23;20524;-78
2024/02/08 05:16:36;;;;;;;21.73;9.90;;;6.70;99.90;;;;;;6220462;23;20031;-78
2024/02/08 05:19:09;;;;;;;18.25;7.22;;;6.70;99.90;;;;;;6194526;23;20028;-78
2024/02/08 05:21:40;;;;;;;16.60;6.65;;;6.70;99.90;;;;;;6195354;23;20024;-79
2024/02/08 05:24:12;;;;;;;13.55;5.78;;;6.70;99.90;;;;;;6198498;23;20021;-78
2024/02/08 05:26:43;;;;;;;12.60;6.00;;;6.70;99.90;;;;;;6193964;23;20024;-79
2024/02/08 05:29:19;;;;;;;19.52;7.97;;;6.70;99.90;;;;;;6222084;23;20297;-78
2024/02/08 05:31:49;;;;;;;23.27;10.43;;;6.70;99.90;;;;;;6220379;23;20047;-78
2024/02/08 05:34:21;;;;;;;21.35;8.50;;;6.70;99.90;;;;;;6192242;23;20362;-78
2024/02/08 05:36:52;;;;;;;14.07;6.60;;;6.70;99.90;;;;;;6219684;23;20358;-78
2024/02/08 05:39:23;;;;;;;12.27;5.43;;;6.70;99.90;;;;;;6220471;23;20020;-78
2024/02/08 05:41:55;;;;;;;12.95;5.25;;;6.70;99.90;;;;;;6191858;23;20025;-78
2024/02/08 05:44:29;;;;;;;15.05;5.47;;;6.70;99.90;;;;;;6219693;23;20393;-78
2024/02/08 05:47:06;;;;;;;14.32;5.47;;;6.70;99.90;;;;;;6191931;23;20028;-79
2024/02/08 05:49:38;;;;;;;10.80;4.90;;;6.70;99.90;;;;;;6193128;23;20111;-78
2024/02/08 05:52:07;;;;;;;13.00;4.93;;;6.70;99.90;;;;;;6193301;23;20458;-79
2024/02/08 05:54:40;;;;;;;10.48;4.32;;;6.60;99.90;;;;;;6192862;23;20036;-79
2024/02/08 05:57:10;;;;;;;15.75;6.78;;;6.70;99.90;;;;;;6192083;23;20029;-78
2024/02/08 05:59:44;;;;;;;11.57;5.30;;;6.70;99.90;;;;;;6196651;23;20029;-83
2024/02/08 06:02:22;;;;;;;13.13;5.18;;;6.70;99.90;;;;;;6203816;23;20083;-82
2024/02/08 06:05:08;;;;;;;11.88;5.60;;;6.60;99.90;;;;;;6205105;23;20075;-83
2024/02/08 06:07:38;;;;;;;13.27;5.88;;;6.70;99.90;;;;;;6203661;23;20017;-82
2024/02/08 06:10:13;;;;;;;15.30;6.20;;;6.70;99.90;;;;;;6205279;23;20029;-87
2024/02/08 06:12:44;;;;;;;13.45;5.68;;;6.70;99.90;;;;;;6205732;23;20012;-86
2024/02/08 06:15:24;;;;;;;14.75;5.55;;;6.70;99.90;;;;;;6205766;23;20013;-86
2024/02/08 06:17:58;;;;;;;12.25;5.18;;;6.70;99.90;;;;;;6206044;23;20311;-86
2024/02/08 06:20:36;;;;;;;13.73;6.00;;;6.60;99.90;;;;;;6207563;23;20020;-87
2024/02/08 06:23:17;;;;;;;19.25;7.80;;;6.60;99.90;;;;;;6231808;23;20035;-85
2024/02/08 06:26:27;;;;;;;23.48;10.55;;;6.60;99.90;;;;;;6203659;23;20032;-86
2024/02/08 06:28:53;;;;;;;25.00;11.60;;;6.60;99.90;;;;;;6206238;23;20047;-87
2024/02/08 06:31:29;;;;;;;20.67;10.80;;;6.60;99.90;;;;;;6205471;23;20020;-87
2024/02/08 06:37:15;;;;;;;19.40;9.43;;;6.60;99.90;;;;;;6205879;23;20084;-87
2024/02/08 06:39:55;;;;;;;20.17;9.48;;;6.60;99.90;;;;;;6206681;23;20028;-87
2024/02/08 06:42:44;;;;;;;15.45;8.20;;;7.10;99.90;;;;;;6206964;23;20048;-86
2024/02/08 06:45:25;;;;;;;14.20;6.97;;;6.70;99.90;;;;;;6181864;23;20016;-86
2024/02/08 06:48:14;;;;;;;10.82;5.90;;;6.70;99.90;;;;;;6232243;23;20020;-87
2024/02/08 07:39:30;;;;;;;13.80;5.88;;;7.40;99.90;;;;;;6200354;23;20020;-79
2024/02/08 07:41:53;;;;;;;14.02;5.63;;;7.40;99.90;;;;;;6229294;23;20023;-79
2024/02/08 07:44:30;;;;;;;12.85;5.18;;;7.40;99.90;;;;;;6200804;23;20024;-79
2024/02/08 07:47:12;;;;;;;11.30;5.13;;;7.50;99.90;;;;;;6230946;23;20027;-80
2024/02/08 07:49:42;;;;;;;10.38;4.45;;;7.50;99.90;;;;;;6179300;23;20020;-79
2024/02/08 07:52:19;;;;;;;11.40;5.15;;;7.50;99.90;;;;;;6153044;23;20040;-79
2024/02/08 07:54:56;;;;;;;12.63;5.25;;;7.60;99.90;;;;;;6177293;23;20025;-79
2024/02/08 07:57:31;;;;;;;11.80;5.18;;;7.60;99.90;;;;;;6201135;23;20035;-79
2024/02/08 08:00:07;;;;;;;12.75;5.85;;;7.60;99.90;;;;;;6200897;23;20031;-79
2024/02/08 08:02:55;;;;;;;10.13;5.18;;;7.70;99.90;;;;;;6165272;23;20026;-80
2024/02/08 08:05:31;;;;;;;13.07;5.07;;;7.70;99.90;;;;;;6140041;23;20099;-79
2024/02/08 08:08:11;;;;;;;12.82;5.45;;;7.80;99.90;;;;;;6142943;23;20021;-80
2024/02/08 08:10:40;;;;;;;9.70;5.15;;;7.80;99.90;;;;;;6165487;23;20411;-79
2024/02/08 08:13:09;;;;;;;12.68;4.78;;;7.90;99.90;;;;;;6166894;23;20029;-80
2024/02/08 08:15:49;;;;;;;17.33;5.75;;;7.90;99.90;;;;;;6141341;23;20509;-80
2024/02/08 08:18:29;;;;;;;13.05;5.57;;;7.90;99.90;;;;;;6140005;23;20026;-79
2024/02/08 08:20:58;;;;;;;15.35;6.45;;;8.00;99.90;;;;;;6164175;23;20072;-80
2024/02/08 08:23:26;;;;;;;12.82;5.18;;;8.00;99.90;;;;;;6137052;23;20082;-79
2024/02/08 08:26:23;;;;;;;11.07;5.20;;;8.00;99.90;;;;;;6138043;23;20013;-79
2024/02/08 08:29:02;;;;;;;13.43;5.63;;;8.00;99.90;;;;;;6136130;23;20077;-78
2024/02/08 08:31:36;;;;;;;11.60;5.80;;;8.00;99.90;;;;;;6139334;23;20080;-79
2024/02/08 08:36:58;;;;;;;13.05;5.38;;;8.10;99.90;;;;;;6223925;23;20039;-80
2024/02/08 08:42:17;;;;;;;10.90;5.68;;;8.20;99.90;;;;;;6200360;23;20024;-79
2024/02/08 08:44:51;;;;;;;14.70;6.95;;;8.40;99.90;;;;;;6193646;23;20017;-79
2024/02/08 08:47:24;;;;;;;14.65;6.15;;;8.60;99.90;;;;;;6225821;23;20017;-81
2024/02/08 08:49:53;;;;;;;11.45;6.25;;;8.70;99.90;;;;;;6199883;23;20087;-80
2024/02/08 08:52:24;;;;;;;13.75;6.53;;;8.80;99.90;;;;;;6193622;23;20051;-78
2024/02/08 08:55:10;;;;;;;17.30;6.43;;;8.80;99.90;;;;;;6199551;23;20024;-79
2024/02/08 08:57:40;;;;;;;12.32;5.68;;;9.00;99.90;;;;;;6199941;23;20017;-80
2024/02/08 09:00:11;;;;;;;17.60;7.40;;;9.10;99.90;;;;;;6200252;23;20063;-80
2024/02/08 09:02:42;;;;;;;16.70;6.63;;;9.30;99.90;;;;;;6228168;23;20024;-80
2024/02/08 09:05:17;;;;;;;16.60;8.27;;;9.40;99.90;;;;;;6198376;23;20028;-80
2024/02/08 09:07:46;;;;;;;16.63;7.45;;;9.50;99.90;;;;;;6202139;23;20021;-80
2024/02/08 09:10:15;;;;;;;18.75;7.43;;;9.60;99.90;;;;;;6203245;23;20041;-81
2024/02/08 09:12:58;;;;;;;16.38;7.35;;;9.70;99.90;;;;;;6197867;23;20025;-79
2024/02/08 09:15:41;;;;;;;;;;;9.70;99.90;;;;;;6197616;23;20025;-79
2024/02/08 09:18:13;;;;;;;12.43;6.07;;;9.60;99.90;;;;;;6199510;23;20008;-80
2024/02/08 09:20:42;;;;;;;13.52;6.22;;;10.00;99.90;;;;;;6196971;23;20449;-78
2024/02/08 09:23:15;;;;;;;14.30;6.72;;;10.00;99.90;;;;;;6199124;23;20323;-81
2024/02/08 09:25:45;;;;;;;14.15;6.40;;;10.10;99.90;;;;;;6198904;23;20025;-80
2024/02/08 09:28:26;;;;;;;15.13;6.60;;;10.20;99.90;;;;;;6197021;23;20016;-80
2024/02/08 09:30:57;;;;;;;10.13;5.20;;;10.30;99.90;;;;;;6202392;23;20051;-84
2024/02/08 09:33:44;;;;;;;9.30;5.22;;;10.40;99.90;;;;;;6199954;23;20076;-84
2024/02/08 09:36:15;;;;;;;12.05;5.30;;;10.40;99.90;;;;;;6199809;23;20508;-83
2024/02/08 09:38:45;;;;;;;11.73;5.22;;;10.50;99.90;;;;;;6198351;23;20424;-84
2024/02/08 09:41:23;;;;;;;13.18;4.68;;;10.70;99.90;;;;;;6199015;23;20017;-86
2024/02/08 09:43:57;;;;;;;14.60;5.80;;;10.70;99.90;;;;;;6227428;23;20075;-85
2024/02/08 09:49:22;;;;;;;8.65;3.58;;;11.40;99.90;;;;;;6200443;23;20381;-84
2024/02/08 09:52:14;;;;;;;7.32;3.58;;;10.80;99.90;;;;;;6200744;23;20028;-85
2024/02/08 09:54:54;;;;;;;8.25;3.47;;;11.10;99.90;;;;;;6201441;23;20026;-85
2024/02/08 09:57:40;;;;;;;7.20;2.78;;;11.30;99.90;;;;;;6168747;23;20041;-83
2024/02/08 10:00:54;;;;;;;4.45;2.33;;;11.40;99.90;;;;;;6144379;23;20029;-86
2024/02/08 10:03:39;;;;;;;6.53;2.55;;;11.50;99.90;;;;;;6023595;23;20537;-86
2024/02/08 10:06:56;;;;;;;4.88;2.15;;;11.60;99.90;;;;;;5968731;24;20062;-84
2024/02/08 10:09:36;;;;;;;21.23;2.08;;;11.30;99.90;;;;;;5944508;24;20028;-78
2024/02/08 10:12:18;;;;;;;4.95;1.60;;;11.80;99.90;;;;;;5906103;24;20030;-86
2024/02/08 10:15:22;;;;;;;3.83;1.88;;;11.90;99.90;;;;;;5885374;24;20048;-85
2024/02/08 10:18:03;;;;;;;5.63;2.10;;;11.50;99.90;;;;;;5887750;24;20512;-85
2024/02/08 10:21:12;;;;;;;6.57;2.50;;;12.00;99.90;;;;;;5857976;24;20026;-85
2024/02/08 10:24:11;;;;;;;7.35;2.10;;;11.40;99.90;;;;;;5800068;24;20050;-85
2024/02/08 10:26:53;;;;;;;7.15;2.40;;;12.10;99.90;;;;;;5861392;24;20037;-86
2024/02/08 10:29:31;;;;;;;8.18;2.50;;;12.20;99.90;;;;;;5869757;24;20031;-87
2024/02/08 10:32:31;;;;;;;4.72;2.10;;;12.40;99.90;;;;;;5914655;24;20090;-87
2024/02/08 10:35:19;;;;;;;9.57;3.33;;;12.30;99.90;;;;;;5916434;24;20052;-85
2024/02/08 10:38:18;;;;;;;8.15;2.75;;;12.40;99.90;;;;;;5932416;24;20037;-88
2024/02/08 10:41:57;;;;;;;;;;;12.40;99.90;;;;;;5972250;24;20036;-79
2024/02/08 10:44:39;;;;;;;7.10;2.20;;;12.40;99.90;;;;;;5994641;24;19919;-80
2024/02/08 10:47:39;;;;;;;7.10;2.30;;;11.80;99.90;;;;;;6009409;23;20023;-80
2024/02/08 10:50:20;;;;;;;5.50;2.05;;;12.50;99.90;;;;;;6085467;23;20018;-81
2024/02/08 10:52:54;;;;;;;7.28;2.45;;;12.50;99.90;;;;;;6133312;23;20018;-82
2024/02/08 10:55:59;;;;;;;8.68;3.10;;;12.60;99.90;;;;;;6086266;23;20035;-80
2024/02/08 10:59:09;;;;;;;6.53;2.72;;;12.60;99.90;;;;;;6065619;23;20086;-81
2024/02/08 11:02:08;;;;;;;3.58;1.90;;;12.70;99.90;;;;;;5991175;24;20049;-79
2024/02/08 11:30:53;;;;;;;5.82;2.80;;;13.50;99.90;;;;;;6342711;22;19998;-80
2024/02/08 11:33:56;;;;;;;7.60;2.28;;;13.40;99.90;;;;;;6316087;22;20007;-83
2024/02/08 11:36:52;;;;;;;7.10;2.72;;;13.40;99.90;;;;;;6224405;23;19997;-81
2024/02/08 11:47:40;;;;;;;7.78;3.05;;;13.20;99.90;;;;;;6100761;23;20031;-78
2024/02/08 11:50:22;;;;;;;8.60;2.58;;;13.30;99.90;;;;;;6127119;23;20024;-82
2024/02/08 11:53:06;;;;;;;4.82;2.22;;;13.30;99.90;;;;;;6159419;23;20051;-82
2024/02/08 11:56:29;;;;;;;5.10;2.22;;;13.40;99.90;;;;;;6180486;23;20044;-81
2024/02/08 11:59:06;;;;;;;9.13;2.35;;;13.40;99.90;;;;;;6215312;23;20101;-83
2024/02/08 12:02:06;;;;;;;5.35;2.33;;;13.50;99.90;;;;;;6204072;23;20025;-82
2024/02/08 12:05:04;;;;;;;5.30;1.98;;;13.50;99.90;;;;;;6210369;23;20052;-82
2024/02/08 12:07:57;;;;;;;6.25;2.40;;;13.60;99.90;;;;;;6207835;23;20020;-82
2024/02/08 12:10:35;;;;;;;4.57;2.30;;;13.60;99.90;;;;;;6164965;23;20025;-83
2024/02/08 12:13:25;;;;;;;5.97;2.33;;;13.50;99.90;;;;;;6188503;23;20029;-83
2024/02/08 12:15:57;;;;;;;6.07;2.30;;;13.60;99.90;;;;;;6213241;23;20021;-81
2024/02/08 12:18:45;;;;;;;6.05;2.15;;;13.60;99.90;;;;;;6188246;23;20024;-82
2024/02/08 12:21:27;;;;;;;5.18;2.03;;;13.50;99.40;;;;;;6236196;23;20025;-83
2024/02/08 12:23:57;;;;;;;3.45;1.98;;;13.50;99.20;;;;;;6212114;23;20102;-83
2024/02/08 12:26:38;;;;;;;8.05;1.65;;;13.50;99.00;;;;;;6216825;23;20083;-80
2024/02/08 12:29:21;;;;;;;6.60;2.03;;;13.50;99.00;;;;;;6208237;23;20017;-81
2024/02/08 12:32:41;;;;;;;4.60;2.28;;;13.50;98.90;;;;;;6119608;23;20007;-83
2024/02/08 12:35:26;;;;;;;6.20;2.15;;;13.60;99.10;;;;;;6118562;23;20033;-82
2024/02/08 12:38:46;;;;;;;6.78;1.80;;;13.70;99.00;;;;;;6114580;23;20057;-77
2024/02/08 12:41:21;;;;;;;7.28;2.33;;;13.60;98.90;;;;;;6141659;23;20022;-77
2024/02/08 12:43:53;;;;;;;5.57;2.20;;;13.60;98.60;;;;;;6143491;23;20046;-78
2024/02/08 12:46:27;;;;;;;7.43;2.70;;;13.60;98.20;;;;;;6116747;23;20018;-80
2024/02/08 12:49:09;;;;;;;4.10;1.77;;;13.80;98.40;;;;;;6116751;23;20017;-79
2024/02/08 12:51:41;;;;;;;8.43;2.40;;;13.70;98.10;;;;;;6171629;23;20081;-79
2024/02/08 12:54:18;;;;;;;4.72;2.15;;;13.80;97.80;;;;;;6176990;23;20025;-79
2024/02/08 12:56:54;;;;;;;4.72;1.67;;;13.70;97.20;;;;;;6219463;22;20026;-79
2024/02/08 12:59:23;;;;;;;7.47;2.00;;;13.70;97.50;;;;;;6225299;23;20031;-77
2024/02/08 13:02:08;;;;;;;6.70;1.67;;;13.70;97.20;;;;;;6237688;23;20004;-83
2024/02/08 13:05:12;;;;;;;3.17;1.58;;;13.80;97.50;;;;;;6240965;23;20028;-82
2024/02/08 13:07:52;;;;;;;5.50;1.77;;;13.80;97.50;;;;;;6237513;23;20021;-79
2024/02/08 13:13:23;;;;;;;7.22;2.13;;;13.70;98.10;;;;;;6208487;23;20024;-78
2024/02/08 13:16:10;;;;;;;7.80;2.30;;;13.60;98.00;;;;;;6232369;23;20509;-77
2024/02/08 13:18:43;;;;;;;5.53;2.28;;;13.60;98.00;;;;;;6230799;23;20024;-77
2024/02/08 13:21:15;;;;;;;5.75;2.10;;;13.60;98.10;;;;;;6227362;23;20024;-79
2024/02/08 13:23:47;;;;;;;10.23;2.83;;;13.50;97.90;;;;;;6235940;23;20458;-78
2024/02/08 13:26:39;;;;;;;6.72;2.65;;;14.40;99.00;;;;;;6233572;23;20027;-79
2024/02/08 13:29:11;;;;;;;7.65;3.13;;;13.60;98.60;;;;;;6204147;23;20043;-77
2024/02/08 13:31:39;;;;;;;5.55;2.38;;;13.60;99.10;;;;;;6293662;22;20035;-77
2024/02/08 13:34:09;;;;;;;9.40;3.13;;;13.60;98.10;;;;;;6328535;22;20019;-80
2024/02/08 13:36:43;;;;;;;8.55;2.78;;;13.60;98.80;;;;;;6295641;22;20053;-79
2024/02/08 13:39:17;;;;;;;6.15;3.10;;;13.50;98.40;;;;;;6298869;22;20014;-80
2024/02/08 13:42:03;;;;;;;8.82;4.70;;;13.50;98.20;;;;;;6301943;22;20069;-80
2024/02/08 13:44:50;;;;;;;6.38;3.38;;;13.50;98.50;;;;;;6303040;22;20084;-80
2024/02/08 13:47:21;;;;;;;8.93;3.97;;;13.50;98.50;;;;;;6301219;22;20385;-75
2024/02/08 13:50:28;;;;;;;8.27;3.22;;;13.40;98.90;;;;;;6199689;23;20117;-79
2024/02/08 13:53:04;;;;;;;10.07;3.65;;;13.30;99.50;;;;;;6145494;23;20018;-79
2024/02/08 13:55:45;;;;;;;10.45;3.97;;;13.30;99.70;;;;;;6143172;23;20022;-77
2024/02/08 13:58:25;;;;;;;11.73;4.40;;;13.30;98.90;;;;;;6116765;23;20081;-81
2024/02/08 14:00:57;;;;;;;12.68;5.50;;;13.20;98.30;;;;;;6115773;23;20095;-76
2024/02/08 14:03:34;;;;;;;8.00;3.92;;;13.20;98.60;;;;;;6112983;23;20041;-79
2024/02/08 14:06:09;;;;;;;9.30;4.45;;;12.90;98.40;;;;;;6138947;23;20032;-78
2024/02/08 14:08:46;;;;;;;9.93;4.47;;;13.20;98.20;;;;;;6160414;23;20021;-78
2024/02/08 14:11:25;;;;;;;9.85;4.22;;;13.20;98.00;;;;;;6177571;23;20013;-84
2024/02/08 14:18:11;;;;;;;8.60;3.70;;;13.10;98.20;;;;;;6148428;23;20014;-86
2024/02/08 14:28:14;;;;;;;13.30;5.40;;;13.10;97.00;;;;;;6089713;23;20025;-81
2024/02/08 14:31:22;;;;;;;10.93;5.53;;;13.10;97.00;;;;;;6053539;23;20030;-85
2024/02/08 14:34:08;;;;;;;11.15;4.35;;;12.90;96.90;;;;;;6058588;23;20031;-82
2024/02/08 14:36:42;;;;;;;12.20;5.15;;;13.60;97.20;;;;;;6060574;23;20027;-81
2024/02/08 14:39:46;;;;;;;16.08;5.75;;;13.00;96.70;;;;;;6090583;23;20017;-84
2024/02/08 14:42:59;;;;;;;12.63;5.03;;;13.00;96.20;;;;;;6033628;23;20008;-85
2024/02/08 14:46:54;;;;;;;13.45;5.20;;;12.80;96.60;;;;;;6032146;23;20027;-85
2024/02/08 14:50:48;;;;;;;10.80;5.25;;;12.70;96.60;;;;;;6000436;24;20509;-85
2024/02/08 14:53:40;;;;;;;10.43;4.50;;;12.70;96.60;;;;;;5898092;24;20073;-85
2024/02/08 14:57:09;;;;;;;15.45;5.13;;;12.50;96.00;;;;;;5948729;24;20028;-83
2024/02/08 15:04:03;;;;;;;12.48;4.97;;;12.60;96.30;;;;;;6032373;23;20020;-85
2024/02/08 15:06:42;;;;;;;13.60;5.32;;;12.60;96.40;;;;;;5979721;24;20036;-82
2024/02/08 15:09:57;;;;;;;13.00;5.20;;;12.50;97.00;;;;;;5978240;24;20036;-85
2024/02/08 15:12:56;;;;;;;15.55;6.20;;;12.50;97.00;;;;;;5981265;24;20039;-85
2024/02/08 15:16:07;;;;;;;15.23;6.03;;;12.40;97.40;;;;;;6002359;24;20043;-86
2024/02/08 15:23:09;;;;;;;16.00;6.82;;;12.30;98.10;;;;;;5941897;24;20029;-78
2024/02/08 15:25:44;;;;;;;14.60;6.00;;;12.20;98.40;;;;;;5997593;24;20028;-79
2024/02/08 15:31:15;;;;;;;16.40;5.70;;;12.00;99.20;;;;;;6040467;23;20038;-79
2024/02/08 15:34:07;;;;;;;18.10;6.43;;;12.00;99.30;;;;;;6058248;23;20079;-79
2024/02/08 15:37:13;;;;;;;13.60;5.70;;;11.90;99.50;;;;;;6027058;23;20118;-79
2024/02/08 15:40:12;;;;;;;19.42;7.10;;;11.80;99.70;;;;;;6029183;23;20023;-80
2024/02/08 15:42:49;;;;;;;19.67;7.85;;;11.80;99.90;;;;;;6039881;23;20098;-78
2024/02/08 15:45:21;;;;;;;19.00;7.45;;;11.80;99.90;;;;;;6169893;23;20352;-78
2024/02/08 15:48:03;;;;;;;14.82;6.25;;;11.70;99.90;;;;;;6112763;23;20022;-78
2024/02/08 15:50:46;;;;;;;12.85;5.68;;;11.60;99.90;;;;;;6137897;23;20040;-78
2024/02/08 15:53:20;;;;;;;17.45;5.85;;;11.50;99.90;;;;;;6175650;23;20031;-78
2024/02/08 15:55:50;;;;;;;14.73;6.50;;;11.30;99.90;;;;;;6176137;23;20045;-77
2024/02/08 15:58:19;;;;;;;14.85;6.53;;;11.20;99.90;;;;;;6176103;23;20025;-78
2024/02/08 16:03:52;;;;;;;16.33;7.22;;;11.00;99.90;;;;;;6203716;23;20013;-78
2024/02/08 16:07:11;;;;;;;19.45;8.65;;;11.00;99.90;;;;;;6203639;23;20036;-78
2024/02/08 16:09:46;;;;;;;16.67;7.20;;;11.00;99.90;;;;;;6177084;23;20025;-78
2024/02/08 16:12:23;;;;;;;20.17;8.48;;;10.60;99.90;;;;;;6170156;23;20037;-77
2024/02/08 16:15:00;;;;;;;18.45;7.05;;;10.80;99.90;;;;;;6145279;23;20033;-77
2024/02/08 16:17:57;;;;;;;18.38;8.23;;;10.70;99.90;;;;;;6145249;23;20053;-77
2024/02/08 16:20:28;;;;;;;20.42;9.10;;;10.70;99.90;;;;;;6143603;23;20025;-77
2024/02/08 16:23:13;;;;;;;19.48;7.72;;;10.30;99.90;;;;;;6138492;23;20026;-77
2024/02/08 16:25:47;;;;;;;17.38;8.23;;;10.00;99.90;;;;;;6113673;23;20048;-77
2024/02/08 16:28:20;;;;;;;17.27;7.25;;;10.50;99.90;;;;;;6137902;23;20543;-77